sensor_id;sensor_type;location;lat;lon;timestamp;temperature;humidity
1602;DHT22;794;48.592;9.634;2022-11-11T00:00:36;3.40;1.00
1602;DHT22;794;48.592;9.634;2022-11-11T00:03:03;3.40;1.00
1602;DHT22;794;48.592;9.634;2022-11-11T00:05:32;3.20;1.00
1602;DHT22;794;48.592;9.634;2022-11-11T00:10:28;3.40;1.00
1602;DHT22;794;48.592;9.634;2022-11-11T00:12:58;3.40;1.00
1602;DHT22;794;48.592;9.634;2022-11-11T00:15:25;3.30;1.00
1602;DHT22;794;48.592;9.634;2022-11-11T00:17:52;3.30;1.00
1602;DHT22;794;48.592;9.634;2022-11-11T00:20:37;3.40;1.00
1602;DHT22;794;48.592;9.634;2022-11-11T00:23:24;3.40;1.00
1602;DHT22;794;48.592;9.634;2022-11-11T00:26:09;5.00;1.00
1602;DHT22;794;48.592;9.634;2022-11-11T00:28:37;3.30;1.00
1602;DHT22;794;48.592;9.634;2022-11-11T00:31:05;3.70;1.00
1602;DHT22;794;48.592;9.634;2022-11-11T00:33:33;3.50;1.00
1602;DHT22;794;48.592;9.634;2022-11-11T00:36:02;3.40;1.00
1602;DHT22;794;48.592;9.634;2022-11-11T00:41:15;3.40;1.00
1602;DHT22;794;48.592;9.634;2022-11-11T00:43:43;3.30;1.00
1602;DHT22;794;48.592;9.634;2022-11-11T00:46:11;3.80;1.00
1602;DHT22;794;48.592;9.634;2022-11-11T00:48:58;3.60;1.00
1602;DHT22;794;48.592;9.634;2022-11-11T00:51:44;3.60;1.00
1602;DHT22;794;48.592;9.634;2022-11-11T00:54:11;3.50;1.00
1602;DHT22;794;48.592;9.634;2022-11-11T00:59:07;3.40;1.00
1602;DHT22;794;48.592;9.634;2022-11-11T01:01:35;3.40;1.00
1602;DHT22;794;48.592;9.634;2022-11-11T01:04:03;3.50;1.00
1602;DHT22;794;48.592;9.634;2022-11-11T01:06:31;3.40;1.00
1602;DHT22;794;48.592;9.634;2022-11-11T01:09:03;4.00;1.00
1602;DHT22;794;48.592;9.634;2022-11-11T01:16:26;3.40;1.00
1602;DHT22;794;48.592;9.634;2022-11-11T01:18:53;3.40;1.00
1602;DHT22;794;48.592;9.634;2022-11-11T01:21:22;3.40;1.00
1602;DHT22;794;48.592;9.634;2022-11-11T01:23:50;3.40;1.00
1602;DHT22;794;48.592;9.634;2022-11-11T01:26:20;5.00;1.00
1602;DHT22;794;48.592;9.634;2022-11-11T01:28:48;3.30;1.00
1602;DHT22;794;48.592;9.634;2022-11-11T01:31:17;4.00;1.00
1602;DHT22;794;48.592;9.634;2022-11-11T01:33:44;4.60;1.00
1602;DHT22;794;48.592;9.634;2022-11-11T01:36:13;3.20;1.00
1602;DHT22;794;48.592;9.634;2022-11-11T01:38:40;3.40;1.00
1602;DHT22;794;48.592;9.634;2022-11-11T01:41:11;3.20;1.00
1602;DHT22;794;48.592;9.634;2022-11-11T01:43:58;3.30;1.00
1602;DHT22;794;48.592;9.634;2022-11-11T01:46:29;3.10;1.00
1602;DHT22;794;48.592;9.634;2022-11-11T01:49:01;3.20;1.00
1602;DHT22;794;48.592;9.634;2022-11-11T01:51:53;4.00;1.00
1602;DHT22;794;48.592;9.634;2022-11-11T01:54:25;3.30;1.00
1602;DHT22;794;48.592;9.634;2022-11-11T01:56:58;3.30;1.00
1602;DHT22;794;48.592;9.634;2022-11-11T02:01:56;3.10;1.00
1602;DHT22;794;48.592;9.634;2022-11-11T02:04:24;3.40;1.00
1602;DHT22;794;48.592;9.634;2022-11-11T02:09:38;3.40;1.00
1602;DHT22;794;48.592;9.634;2022-11-11T02:12:08;3.10;1.00
1602;DHT22;794;48.592;9.634;2022-11-11T02:14:56;3.20;1.00
1602;DHT22;794;48.592;9.634;2022-11-11T02:17:25;3.30;1.00
1602;DHT22;794;48.592;9.634;2022-11-11T02:19:55;3.10;1.00
1602;DHT22;794;48.592;9.634;2022-11-11T02:22:30;3.30;1.00
1602;DHT22;794;48.592;9.634;2022-11-11T02:25:01;3.20;1.00
1602;DHT22;794;48.592;9.634;2022-11-11T02:27:30;3.30;1.00
1602;DHT22;794;48.592;9.634;2022-11-11T02:29:59;3.20;1.00
1602;DHT22;794;48.592;9.634;2022-11-11T02:37:24;3.20;1.00
1602;DHT22;794;48.592;9.634;2022-11-11T02:39:56;3.20;1.00
1602;DHT22;794;48.592;9.634;2022-11-11T02:42:25;3.00;1.00
1602;DHT22;794;48.592;9.634;2022-11-11T02:44:52;3.20;1.00
1602;DHT22;794;48.592;9.634;2022-11-11T02:47:24;4.00;1.00
1602;DHT22;794;48.592;9.634;2022-11-11T02:52:18;3.10;1.00
1602;DHT22;794;48.592;9.634;2022-11-11T02:59:42;3.60;1.00
1602;DHT22;794;48.592;9.634;2022-11-11T03:04:37;3.40;1.00
1602;DHT22;794;48.592;9.634;2022-11-11T03:07:04;4.20;1.00
1602;DHT22;794;48.592;9.634;2022-11-11T03:09:31;3.30;1.00
1602;DHT22;794;48.592;9.634;2022-11-11T03:11:58;3.50;1.00
1602;DHT22;794;48.592;9.634;2022-11-11T03:14:25;3.40;1.00
1602;DHT22;794;48.592;9.634;2022-11-11T03:16:54;3.50;1.00
1602;DHT22;794;48.592;9.634;2022-11-11T03:19:38;3.20;1.00
1602;DHT22;794;48.592;9.634;2022-11-11T03:22:05;3.90;1.00
1602;DHT22;794;48.592;9.634;2022-11-11T03:24:31;4.10;1.00
1602;DHT22;794;48.592;9.634;2022-11-11T03:27:15;3.30;1.00
1602;DHT22;794;48.592;9.634;2022-11-11T03:29:42;3.20;1.00
1602;DHT22;794;48.592;9.634;2022-11-11T03:32:10;3.00;1.00
1602;DHT22;794;48.592;9.634;2022-11-11T03:37:06;3.30;1.00
1602;DHT22;794;48.592;9.634;2022-11-11T03:39:50;3.40;1.00
1602;DHT22;794;48.592;9.634;2022-11-11T03:42:17;3.60;1.00
1602;DHT22;794;48.592;9.634;2022-11-11T03:44:47;3.30;1.00
1602;DHT22;794;48.592;9.634;2022-11-11T03:47:15;3.40;1.00
1602;DHT22;794;48.592;9.634;2022-11-11T03:49:42;4.30;1.00
1602;DHT22;794;48.592;9.634;2022-11-11T03:57:06;3.30;1.00
1602;DHT22;794;48.592;9.634;2022-11-11T04:05:04;3.30;1.00
1602;DHT22;794;48.592;9.634;2022-11-11T04:07:49;3.20;1.00
1602;DHT22;794;48.592;9.634;2022-11-11T04:10:35;3.30;1.00
1602;DHT22;794;48.592;9.634;2022-11-11T04:13:02;3.10;1.00
1602;DHT22;794;48.592;9.634;2022-11-11T04:15:47;2.70;1.00
1602;DHT22;794;48.592;9.634;2022-11-11T04:18:35;3.10;1.00
1602;DHT22;794;48.592;9.634;2022-11-11T04:21:19;3.30;1.00
1602;DHT22;794;48.592;9.634;2022-11-11T04:24:05;4.40;1.00
1602;DHT22;794;48.592;9.634;2022-11-11T04:26:53;3.10;1.00
1602;DHT22;794;48.592;9.634;2022-11-11T04:29:20;3.10;1.00
1602;DHT22;794;48.592;9.634;2022-11-11T04:31:57;3.50;1.00
1602;DHT22;794;48.592;9.634;2022-11-11T04:34:44;3.20;1.00
1602;DHT22;794;48.592;9.634;2022-11-11T04:42:24;3.40;1.00
1602;DHT22;794;48.592;9.634;2022-11-11T04:44:51;3.60;1.00
1602;DHT22;794;48.592;9.634;2022-11-11T04:50:05;3.00;1.00
1602;DHT22;794;48.592;9.634;2022-11-11T04:52:32;3.10;1.00
1602;DHT22;794;48.592;9.634;2022-11-11T04:54:58;2.90;1.00
1602;DHT22;794;48.592;9.634;2022-11-11T04:57:44;3.00;1.00
1602;DHT22;794;48.592;9.634;2022-11-11T05:00:13;0.40;1.00
1602;DHT22;794;48.592;9.634;2022-11-11T05:02:41;3.10;1.00
1602;DHT22;794;48.592;9.634;2022-11-11T05:05:27;3.20;1.00
1602;DHT22;794;48.592;9.634;2022-11-11T05:10:59;3.20;1.00
1602;DHT22;794;48.592;9.634;2022-11-11T05:13:26;4.20;1.00
1602;DHT22;794;48.592;9.634;2022-11-11T05:16:14;4.90;1.00
1602;DHT22;794;48.592;9.634;2022-11-11T05:18:59;4.70;1.00
1602;DHT22;794;48.592;9.634;2022-11-11T05:21:45;3.50;1.00
1602;DHT22;794;48.592;9.634;2022-11-11T05:24:12;2.70;1.00
1602;DHT22;794;48.592;9.634;2022-11-11T05:29:24;3.20;1.00
1602;DHT22;794;48.592;9.634;2022-11-11T05:31:51;3.40;1.00
1602;DHT22;794;48.592;9.634;2022-11-11T05:34:18;3.30;1.00
1602;DHT22;794;48.592;9.634;2022-11-11T05:36:46;3.30;1.00
1602;DHT22;794;48.592;9.634;2022-11-11T05:39:13;3.10;1.00
1602;DHT22;794;48.592;9.634;2022-11-11T05:41:40;4.00;1.00
1602;DHT22;794;48.592;9.634;2022-11-11T05:44:07;3.10;1.00
1602;DHT22;794;48.592;9.634;2022-11-11T05:46:34;3.40;1.00
1602;DHT22;794;48.592;9.634;2022-11-11T05:51:40;3.30;1.00
1602;DHT22;794;48.592;9.634;2022-11-11T05:54:09;3.40;1.00
1602;DHT22;794;48.592;9.634;2022-11-11T05:56:36;3.10;1.00
1602;DHT22;794;48.592;9.634;2022-11-11T06:06:25;3.30;1.00
1602;DHT22;794;48.592;9.634;2022-11-11T06:08:52;3.50;1.00
1602;DHT22;794;48.592;9.634;2022-11-11T06:11:21;3.00;1.00
1602;DHT22;794;48.592;9.634;2022-11-11T06:13:48;3.40;1.00
1602;DHT22;794;48.592;9.634;2022-11-11T06:16:15;5.00;1.00
1602;DHT22;794;48.592;9.634;2022-11-11T06:18:42;3.10;1.00
1602;DHT22;794;48.592;9.634;2022-11-11T06:21:09;3.30;1.00
1602;DHT22;794;48.592;9.634;2022-11-11T06:26:04;2.90;1.00
1602;DHT22;794;48.592;9.634;2022-11-11T06:28:43;3.20;1.00
1602;DHT22;794;48.592;9.634;2022-11-11T06:31:12;3.30;1.00
1602;DHT22;794;48.592;9.634;2022-11-11T06:36:08;3.40;1.00
1602;DHT22;794;48.592;9.634;2022-11-11T06:48:27;3.60;1.00
1602;DHT22;794;48.592;9.634;2022-11-11T06:51:00;3.60;1.00
1602;DHT22;794;48.592;9.634;2022-11-11T07:03:20;4.00;1.00
1602;DHT22;794;48.592;9.634;2022-11-11T07:08:16;4.00;1.00
1602;DHT22;794;48.592;9.634;2022-11-11T07:10:45;4.20;1.00
1602;DHT22;794;48.592;9.634;2022-11-11T07:13:13;4.00;1.00
1602;DHT22;794;48.592;9.634;2022-11-11T07:40:18;5.30;1.00
1602;DHT22;794;48.592;9.634;2022-11-11T07:47:42;5.90;1.00
1602;DHT22;794;48.592;9.634;2022-11-11T07:50:10;5.80;1.00
1602;DHT22;794;48.592;9.634;2022-11-11T07:55:06;6.10;1.00
1602;DHT22;794;48.592;9.634;2022-11-11T07:57:34;6.40;1.00
1602;DHT22;794;48.592;9.634;2022-11-11T08:02:28;6.50;1.00
1602;DHT22;794;48.592;9.634;2022-11-11T08:04:55;6.70;1.00
1602;DHT22;794;48.592;9.634;2022-11-11T08:15:04;7.40;1.00
1602;DHT22;794;48.592;9.634;2022-11-11T08:17:35;7.60;1.00
1602;DHT22;794;48.592;9.634;2022-11-11T08:22:35;7.70;1.00
1602;DHT22;794;48.592;9.634;2022-11-11T08:52:18;9.40;1.00
1602;DHT22;794;48.592;9.634;2022-11-11T09:02:10;9.30;1.00
1602;DHT22;794;48.592;9.634;2022-11-11T09:07:06;11.10;1.00
1602;DHT22;794;48.592;9.634;2022-11-11T09:29:17;9.50;1.00
1602;DHT22;794;48.592;9.634;2022-11-11T09:36:40;9.90;1.00
1602;DHT22;794;48.592;9.634;2022-11-11T09:41:44;10.70;1.00
1602;DHT22;794;48.592;9.634;2022-11-11T09:44:22;11.00;1.00
1602;DHT22;794;48.592;9.634;2022-11-11T09:47:01;10.90;1.00
1602;DHT22;794;48.592;9.634;2022-11-11T09:49:46;11.10;1.00
1602;DHT22;794;48.592;9.634;2022-11-11T09:52:20;11.40;1.00
1602;DHT22;794;48.592;9.634;2022-11-11T09:54:51;11.90;1.00
1602;DHT22;794;48.592;9.634;2022-11-11T09:57:31;12.30;1.00
1602;DHT22;794;48.592;9.634;2022-11-11T10:00:02;12.90;1.00
1602;DHT22;794;48.592;9.634;2022-11-11T10:02:39;13.90;1.00
1602;DHT22;794;48.592;9.634;2022-11-11T10:05:10;14.30;1.00
1602;DHT22;794;48.592;9.634;2022-11-11T10:07:42;14.70;1.00
1602;DHT22;794;48.592;9.634;2022-11-11T10:10:19;15.10;1.00
1602;DHT22;794;48.592;9.634;2022-11-11T10:12:52;14.90;1.00
1602;DHT22;794;48.592;9.634;2022-11-11T10:17:57;14.90;1.00
1602;DHT22;794;48.592;9.634;2022-11-11T10:20:29;15.50;1.00
1602;DHT22;794;48.592;9.634;2022-11-11T10:23:04;15.60;1.00
1602;DHT22;794;48.592;9.634;2022-11-11T10:25:40;15.60;1.00
1602;DHT22;794;48.592;9.634;2022-11-11T10:28:14;15.80;1.00
1602;DHT22;794;48.592;9.634;2022-11-11T10:30:43;15.90;1.00
1602;DHT22;794;48.592;9.634;2022-11-11T10:33:16;16.00;1.00
1602;DHT22;794;48.592;9.634;2022-11-11T10:35:51;16.00;1.00
1602;DHT22;794;48.592;9.634;2022-11-11T10:38:30;16.10;1.00
1602;DHT22;794;48.592;9.634;2022-11-11T10:41:04;16.10;1.00
1602;DHT22;794;48.592;9.634;2022-11-11T10:46:06;15.80;1.00
1602;DHT22;794;48.592;9.634;2022-11-11T10:48:47;15.60;1.00
1602;DHT22;794;48.592;9.634;2022-11-11T10:51:29;15.50;1.00
1602;DHT22;794;48.592;9.634;2022-11-11T10:54:07;15.10;1.00
1602;DHT22;794;48.592;9.634;2022-11-11T10:56:37;15.20;1.00
1602;DHT22;794;48.592;9.634;2022-11-11T10:59:13;15.20;1.00
1602;DHT22;794;48.592;9.634;2022-11-11T11:01:50;14.90;1.00
1602;DHT22;794;48.592;9.634;2022-11-11T11:04:25;14.60;1.00
1602;DHT22;794;48.592;9.634;2022-11-11T11:06:57;14.80;1.00
1602;DHT22;794;48.592;9.634;2022-11-11T11:09:30;16.00;1.00
1602;DHT22;794;48.592;9.634;2022-11-11T11:12:05;14.80;1.00
1602;DHT22;794;48.592;9.634;2022-11-11T11:14:38;14.80;1.00
1602;DHT22;794;48.592;9.634;2022-11-11T11:17:12;14.50;1.00
1602;DHT22;794;48.592;9.634;2022-11-11T11:24:36;14.60;1.00
1602;DHT22;794;48.592;9.634;2022-11-11T11:27:05;14.70;1.00
1602;DHT22;794;48.592;9.634;2022-11-11T11:29:34;14.40;1.00
1602;DHT22;794;48.592;9.634;2022-11-11T11:32:15;14.50;1.00
1602;DHT22;794;48.592;9.634;2022-11-11T11:34:48;14.70;1.00
1602;DHT22;794;48.592;9.634;2022-11-11T11:39:45;14.40;1.00
1602;DHT22;794;48.592;9.634;2022-11-11T11:42:29;14.40;1.00
1602;DHT22;794;48.592;9.634;2022-11-11T11:47:38;14.80;1.00
1602;DHT22;794;48.592;9.634;2022-11-11T11:50:25;14.40;1.00
1602;DHT22;794;48.592;9.634;2022-11-11T11:53:02;16.90;1.00
1602;DHT22;794;48.592;9.634;2022-11-11T11:55:34;14.60;1.00
1602;DHT22;794;48.592;9.634;2022-11-11T11:58:18;14.60;1.00
1602;DHT22;794;48.592;9.634;2022-11-11T12:00:54;14.60;1.00
1602;DHT22;794;48.592;9.634;2022-11-11T12:03:45;14.80;1.00
1602;DHT22;794;48.592;9.634;2022-11-11T12:06:18;14.90;1.00
1602;DHT22;794;48.592;9.634;2022-11-11T12:08:59;14.90;1.00
1602;DHT22;794;48.592;9.634;2022-11-11T12:11:35;15.00;1.00
1602;DHT22;794;48.592;9.634;2022-11-11T12:14:28;15.10;1.00
1602;DHT22;794;48.592;9.634;2022-11-11T12:17:02;15.10;1.00
1602;DHT22;794;48.592;9.634;2022-11-11T12:19:46;15.10;1.00
1602;DHT22;794;48.592;9.634;2022-11-11T12:22:28;15.20;1.00
1602;DHT22;794;48.592;9.634;2022-11-11T12:25:01;15.40;1.00
1602;DHT22;794;48.592;9.634;2022-11-11T12:27:37;15.30;1.00
1602;DHT22;794;48.592;9.634;2022-11-11T12:30:08;15.50;1.00
1602;DHT22;794;48.592;9.634;2022-11-11T12:35:36;15.40;1.00
1602;DHT22;794;48.592;9.634;2022-11-11T12:38:35;15.60;1.00
1602;DHT22;794;48.592;9.634;2022-11-11T12:41:09;14.10;1.00
1602;DHT22;794;48.592;9.634;2022-11-11T12:43:48;15.20;1.00
1602;DHT22;794;48.592;9.634;2022-11-11T12:46:23;15.20;1.00
1602;DHT22;794;48.592;9.634;2022-11-11T12:49:02;15.20;1.00
1602;DHT22;794;48.592;9.634;2022-11-11T12:51:39;15.20;1.00
1602;DHT22;794;48.592;9.634;2022-11-11T12:54:18;15.20;1.00
1602;DHT22;794;48.592;9.634;2022-11-11T12:56:54;14.00;1.00
1602;DHT22;794;48.592;9.634;2022-11-11T12:59:53;15.20;1.00
1602;DHT22;794;48.592;9.634;2022-11-11T13:02:37;14.70;1.00
1602;DHT22;794;48.592;9.634;2022-11-11T13:05:12;15.30;1.00
1602;DHT22;794;48.592;9.634;2022-11-11T13:10:44;15.10;1.00
1602;DHT22;794;48.592;9.634;2022-11-11T13:13:34;15.30;1.00
1602;DHT22;794;48.592;9.634;2022-11-11T13:16:06;15.40;1.00
1602;DHT22;794;48.592;9.634;2022-11-11T13:18:41;15.10;1.00
1602;DHT22;794;48.592;9.634;2022-11-11T13:21:11;15.10;1.00
1602;DHT22;794;48.592;9.634;2022-11-11T13:26:20;15.20;1.00
1602;DHT22;794;48.592;9.634;2022-11-11T13:28:50;15.30;1.00
1602;DHT22;794;48.592;9.634;2022-11-11T13:31:29;15.30;1.00
1602;DHT22;794;48.592;9.634;2022-11-11T13:34:02;15.30;1.00
1602;DHT22;794;48.592;9.634;2022-11-11T13:36:33;15.10;1.00
1602;DHT22;794;48.592;9.634;2022-11-11T13:41:34;15.10;1.00
1602;DHT22;794;48.592;9.634;2022-11-11T13:44:04;15.30;1.00
1602;DHT22;794;48.592;9.634;2022-11-11T13:46:36;15.10;1.00
1602;DHT22;794;48.592;9.634;2022-11-11T13:49:08;15.30;1.00
1602;DHT22;794;48.592;9.634;2022-11-11T13:51:38;15.20;1.00
1602;DHT22;794;48.592;9.634;2022-11-11T13:54:18;15.60;1.00
1602;DHT22;794;48.592;9.634;2022-11-11T13:56:47;14.90;1.00
1602;DHT22;794;48.592;9.634;2022-11-11T13:59:20;15.10;1.00
1602;DHT22;794;48.592;9.634;2022-11-11T14:02:17;15.20;1.00
1602;DHT22;794;48.592;9.634;2022-11-11T14:05:15;15.20;1.00
1602;DHT22;794;48.592;9.634;2022-11-11T14:07:50;15.00;1.00
1602;DHT22;794;48.592;9.634;2022-11-11T14:10:48;11.20;1.00
1602;DHT22;794;48.592;9.634;2022-11-11T14:13:35;14.80;1.00
1602;DHT22;794;48.592;9.634;2022-11-11T14:18:39;14.10;1.00
1602;DHT22;794;48.592;9.634;2022-11-11T14:21:08;14.50;1.00
1602;DHT22;794;48.592;9.634;2022-11-11T14:23:37;12.00;1.00
1602;DHT22;794;48.592;9.634;2022-11-11T14:26:23;14.40;1.00
1602;DHT22;794;48.592;9.634;2022-11-11T14:29:01;14.40;1.00
1602;DHT22;794;48.592;9.634;2022-11-11T14:37:59;14.10;1.00
1602;DHT22;794;48.592;9.634;2022-11-11T14:40:30;13.60;1.00
1602;DHT22;794;48.592;9.634;2022-11-11T14:42:58;13.70;1.00
1602;DHT22;794;48.592;9.634;2022-11-11T14:46:03;13.30;1.00
1602;DHT22;794;48.592;9.634;2022-11-11T14:48:55;13.00;1.00
1602;DHT22;794;48.592;9.634;2022-11-11T14:51:46;12.80;1.00
1602;DHT22;794;48.592;9.634;2022-11-11T14:54:35;12.40;1.00
1602;DHT22;794;48.592;9.634;2022-11-11T14:57:07;12.40;1.00
1602;DHT22;794;48.592;9.634;2022-11-11T14:59:37;12.20;1.00
1602;DHT22;794;48.592;9.634;2022-11-11T15:02:17;12.30;1.00
1602;DHT22;794;48.592;9.634;2022-11-11T15:07:22;12.00;1.00
1602;DHT22;794;48.592;9.634;2022-11-11T15:13:03;11.70;1.00
1602;DHT22;794;48.592;9.634;2022-11-11T15:15:38;11.40;1.00
1602;DHT22;794;48.592;9.634;2022-11-11T15:18:16;11.00;1.00
1602;DHT22;794;48.592;9.634;2022-11-11T15:20:55;10.80;1.00
1602;DHT22;794;48.592;9.634;2022-11-11T15:23:30;10.90;1.00
1602;DHT22;794;48.592;9.634;2022-11-11T15:26:08;10.80;1.00
1602;DHT22;794;48.592;9.634;2022-11-11T15:31:40;10.20;1.00
1602;DHT22;794;48.592;9.634;2022-11-11T15:34:21;10.40;1.00
1602;DHT22;794;48.592;9.634;2022-11-11T15:36:53;10.10;1.00
1602;DHT22;794;48.592;9.634;2022-11-11T15:39:23;10.10;1.00
1602;DHT22;794;48.592;9.634;2022-11-11T15:41:52;10.00;1.00
1602;DHT22;794;48.592;9.634;2022-11-11T15:44:22;10.00;1.00
1602;DHT22;794;48.592;9.634;2022-11-11T15:46:51;9.70;1.00
1602;DHT22;794;48.592;9.634;2022-11-11T15:49:39;9.40;1.00
1602;DHT22;794;48.592;9.634;2022-11-11T15:52:26;9.40;1.00
1602;DHT22;794;48.592;9.634;2022-11-11T15:54:54;9.10;1.00
1602;DHT22;794;48.592;9.634;2022-11-11T15:57:27;9.10;1.00
1602;DHT22;794;48.592;9.634;2022-11-11T16:02:24;9.00;1.00
1602;DHT22;794;48.592;9.634;2022-11-11T16:04:54;8.90;1.00
1602;DHT22;794;48.592;9.634;2022-11-11T16:09:51;8.80;1.00
1602;DHT22;794;48.592;9.634;2022-11-11T16:12:23;8.60;1.00
1602;DHT22;794;48.592;9.634;2022-11-11T16:14:53;8.50;1.00
1602;DHT22;794;48.592;9.634;2022-11-11T16:17:27;8.40;1.00
1602;DHT22;794;48.592;9.634;2022-11-11T16:22:24;8.30;1.00
1602;DHT22;794;48.592;9.634;2022-11-11T16:27:23;8.50;1.00
1602;DHT22;794;48.592;9.634;2022-11-11T16:32:33;8.30;1.00
1602;DHT22;794;48.592;9.634;2022-11-11T16:37:27;8.30;1.00
1602;DHT22;794;48.592;9.634;2022-11-11T16:42:23;7.70;1.00
1602;DHT22;794;48.592;9.634;2022-11-11T16:44:55;7.90;1.00
1602;DHT22;794;48.592;9.634;2022-11-11T16:47:41;8.00;1.00
1602;DHT22;794;48.592;9.634;2022-11-11T16:50:10;7.80;1.00
1602;DHT22;794;48.592;9.634;2022-11-11T16:52:40;7.80;1.00
1602;DHT22;794;48.592;9.634;2022-11-11T16:57:39;7.70;1.00
1602;DHT22;794;48.592;9.634;2022-11-11T17:00:12;7.50;1.00
1602;DHT22;794;48.592;9.634;2022-11-11T17:07:36;7.40;1.00
1602;DHT22;794;48.592;9.634;2022-11-11T17:10:13;7.40;1.00
1602;DHT22;794;48.592;9.634;2022-11-11T17:15:11;7.20;1.00
1602;DHT22;794;48.592;9.634;2022-11-11T17:17:38;7.30;1.00
1602;DHT22;794;48.592;9.634;2022-11-11T17:20:08;7.10;1.00
1602;DHT22;794;48.592;9.634;2022-11-11T17:25:03;6.80;1.00
1602;DHT22;794;48.592;9.634;2022-11-11T17:32:27;6.70;1.00
1602;DHT22;794;48.592;9.634;2022-11-11T17:52:05;6.60;1.00
1602;DHT22;794;48.592;9.634;2022-11-11T17:54:32;6.60;1.00
1602;DHT22;794;48.592;9.634;2022-11-11T18:06:51;6.40;1.00
1602;DHT22;794;48.592;9.634;2022-11-11T18:11:45;6.20;1.00
1602;DHT22;794;48.592;9.634;2022-11-11T18:14:12;6.50;1.00
1602;DHT22;794;48.592;9.634;2022-11-11T18:29:04;6.40;1.00
1602;DHT22;794;48.592;9.634;2022-11-11T18:51:15;6.00;1.00
1602;DHT22;794;48.592;9.634;2022-11-11T18:56:12;6.10;1.00
1602;DHT22;794;48.592;9.634;2022-11-11T18:58:41;6.20;1.00
1602;DHT22;794;48.592;9.634;2022-11-11T19:08:37;6.10;1.00
1602;DHT22;794;48.592;9.634;2022-11-11T19:11:05;6.20;1.00
1602;DHT22;794;48.592;9.634;2022-11-11T19:16:07;6.00;1.00
1602;DHT22;794;48.592;9.634;2022-11-11T19:18:35;6.20;1.00
1602;DHT22;794;48.592;9.634;2022-11-11T19:21:06;6.00;1.00
1602;DHT22;794;48.592;9.634;2022-11-11T19:28:27;6.10;1.00
1602;DHT22;794;48.592;9.634;2022-11-11T19:31:00;6.00;1.00
1602;DHT22;794;48.592;9.634;2022-11-11T19:33:31;6.00;1.00
1602;DHT22;794;48.592;9.634;2022-11-11T19:36:00;5.90;1.00
1602;DHT22;794;48.592;9.634;2022-11-11T19:40:54;6.00;1.00
1602;DHT22;794;48.592;9.634;2022-11-11T19:55:41;5.60;1.00
1602;DHT22;794;48.592;9.634;2022-11-11T19:58:08;5.70;1.00
1602;DHT22;794;48.592;9.634;2022-11-11T20:03:03;5.70;1.00
1602;DHT22;794;48.592;9.634;2022-11-11T20:10:28;5.60;1.00
1602;DHT22;794;48.592;9.634;2022-11-11T20:12:54;5.40;1.00
1602;DHT22;794;48.592;9.634;2022-11-11T20:15:21;5.30;1.00
1602;DHT22;794;48.592;9.634;2022-11-11T20:17:48;5.50;1.00
1602;DHT22;794;48.592;9.634;2022-11-11T20:20:15;6.50;1.00
1602;DHT22;794;48.592;9.634;2022-11-11T20:25:11;5.30;1.00
1602;DHT22;794;48.592;9.634;2022-11-11T20:27:38;4.70;1.00
1602;DHT22;794;48.592;9.634;2022-11-11T20:30:05;5.40;1.00
1602;DHT22;794;48.592;9.634;2022-11-11T20:32:32;5.20;1.00
1602;DHT22;794;48.592;9.634;2022-11-11T20:37:27;5.30;1.00
1602;DHT22;794;48.592;9.634;2022-11-11T20:39:54;5.40;1.00
1602;DHT22;794;48.592;9.634;2022-11-11T20:42:22;5.30;1.00
1602;DHT22;794;48.592;9.634;2022-11-11T20:44:49;5.10;1.00
1602;DHT22;794;48.592;9.634;2022-11-11T20:47:16;5.30;1.00
1602;DHT22;794;48.592;9.634;2022-11-11T20:49:43;5.10;1.00
1602;DHT22;794;48.592;9.634;2022-11-11T20:52:10;5.10;1.00
1602;DHT22;794;48.592;9.634;2022-11-11T20:57:05;5.10;1.00
1602;DHT22;794;48.592;9.634;2022-11-11T20:59:33;6.90;1.00
1602;DHT22;794;48.592;9.634;2022-11-11T21:02:00;5.00;1.00
1602;DHT22;794;48.592;9.634;2022-11-11T21:04:26;5.20;1.00
1602;DHT22;794;48.592;9.634;2022-11-11T21:06:53;5.40;1.00
1602;DHT22;794;48.592;9.634;2022-11-11T21:09:20;5.10;1.00
1602;DHT22;794;48.592;9.634;2022-11-11T21:11:47;6.50;1.00
1602;DHT22;794;48.592;9.634;2022-11-11T21:14:14;5.30;1.00
1602;DHT22;794;48.592;9.634;2022-11-11T21:16:42;5.40;1.00
1602;DHT22;794;48.592;9.634;2022-11-11T21:21:36;5.00;1.00
1602;DHT22;794;48.592;9.634;2022-11-11T21:24:06;4.90;1.00
1602;DHT22;794;48.592;9.634;2022-11-11T21:26:34;5.00;1.00
1602;DHT22;794;48.592;9.634;2022-11-11T21:31:30;5.10;1.00
1602;DHT22;794;48.592;9.634;2022-11-11T21:34:01;7.70;1.00
1602;DHT22;794;48.592;9.634;2022-11-11T21:36:30;5.00;1.00
1602;DHT22;794;48.592;9.634;2022-11-11T21:38:58;4.90;1.00
1602;DHT22;794;48.592;9.634;2022-11-11T21:41:27;5.00;1.00
1602;DHT22;794;48.592;9.634;2022-11-11T21:43:55;5.20;1.00
1602;DHT22;794;48.592;9.634;2022-11-11T21:46:23;4.90;1.00
1602;DHT22;794;48.592;9.634;2022-11-11T21:48:51;4.80;1.00
1602;DHT22;794;48.592;9.634;2022-11-11T21:51:22;5.00;1.00
1602;DHT22;794;48.592;9.634;2022-11-11T21:53:52;5.00;1.00
1602;DHT22;794;48.592;9.634;2022-11-11T21:56:21;4.90;1.00
1602;DHT22;794;48.592;9.634;2022-11-11T21:58:49;4.80;1.00
1602;DHT22;794;48.592;9.634;2022-11-11T22:01:20;6.30;1.00
1602;DHT22;794;48.592;9.634;2022-11-11T22:03:50;4.70;1.00
1602;DHT22;794;48.592;9.634;2022-11-11T22:06:20;5.10;1.00
1602;DHT22;794;48.592;9.634;2022-11-11T22:08:48;4.90;1.00
1602;DHT22;794;48.592;9.634;2022-11-11T22:11:17;4.70;1.00
1602;DHT22;794;48.592;9.634;2022-11-11T22:16:14;4.70;1.00
1602;DHT22;794;48.592;9.634;2022-11-11T22:21:10;4.90;1.00
1602;DHT22;794;48.592;9.634;2022-11-11T22:23:45;4.40;1.00
1602;DHT22;794;48.592;9.634;2022-11-11T22:36:06;4.40;1.00
1602;DHT22;794;48.592;9.634;2022-11-11T22:41:04;4.50;1.00
1602;DHT22;794;48.592;9.634;2022-11-11T22:43:33;4.40;1.00
1602;DHT22;794;48.592;9.634;2022-11-11T22:51:03;4.30;1.00
1602;DHT22;794;48.592;9.634;2022-11-11T22:53:33;4.40;1.00
1602;DHT22;794;48.592;9.634;2022-11-11T22:56:04;4.30;1.00
1602;DHT22;794;48.592;9.634;2022-11-11T22:58:33;4.30;1.00
1602;DHT22;794;48.592;9.634;2022-11-11T23:18:19;4.20;1.00
1602;DHT22;794;48.592;9.634;2022-11-11T23:20:57;4.00;1.00
1602;DHT22;794;48.592;9.634;2022-11-11T23:23:26;4.20;1.00
1602;DHT22;794;48.592;9.634;2022-11-11T23:25:53;3.80;1.00
1602;DHT22;794;48.592;9.634;2022-11-11T23:28:21;4.20;1.00
1602;DHT22;794;48.592;9.634;2022-11-11T23:30:49;4.20;1.00
1602;DHT22;794;48.592;9.634;2022-11-11T23:38:13;4.20;1.00
1602;DHT22;794;48.592;9.634;2022-11-11T23:40:40;6.80;1.00
1602;DHT22;794;48.592;9.634;2022-11-11T23:45:35;3.90;1.00
1602;DHT22;794;48.592;9.634;2022-11-11T23:48:06;4.00;1.00
1602;DHT22;794;48.592;9.634;2022-11-11T23:50:33;3.80;1.00
1602;DHT22;794;48.592;9.634;2022-11-11T23:53:00;3.90;1.00
1602;DHT22;794;48.592;9.634;2022-11-11T23:55:27;3.70;1.00
1602;DHT22;794;48.592;9.634;2022-11-11T23:57:54;4.40;1.00
